Time;durP1;ratioP1;P1;durP2;ratioP2;P2;SDS_P1;SDS_P2;PMS_P1;PMS_P2;Temp;Humidity;BMP_temperature;BMP_pressure;BME280_temperature;BME280_humidity;BME280_pressure;Samples;Min_cycle;Max_cycle;Signal;HPM_P1;HPM_P2
2021/10/01 00:01:11;;;;;;;;;6.00;5.00;;;;;12.05;58.26;101374.47;5058142;28;56421;-61
2021/10/01 00:03:36;;;;;;;;;3.00;3.00;;;;;12.05;57.43;101366.56;5039788;28;70695;-61
2021/10/01 00:06:01;;;;;;;;;5.75;4.00;;;;;12.06;57.63;101360.34;5057797;28;64428;-61
2021/10/01 00:08:27;;;;;;;;;3.00;3.00;;;;;12.05;57.61;101356.03;5058681;28;45411;-61
2021/10/01 00:10:52;;;;;;;;;5.25;4.25;;;;;12.05;58.07;101350.75;5058029;28;58747;-61
2021/10/01 00:13:18;;;;;;;;;4.75;4.00;;;;;12.04;58.75;101349.91;5058344;28;46166;-61
2021/10/01 00:15:46;;;;;;;;;4.00;4.00;;;;;12.02;58.68;101347.41;5057673;28;66909;-61
2021/10/01 00:18:11;;;;;;;;;2.75;2.75;;;;;12.00;59.03;101345.84;5058538;28;45372;-61
2021/10/01 00:20:37;;;;;;;;;4.25;4.25;;;;;12.00;58.67;101336.16;5058288;28;45653;-61
2021/10/01 00:23:02;;;;;;;;;4.00;3.00;;;;;11.99;58.11;101342.41;5058164;28;47664;-62
2021/10/01 00:25:28;;;;;;;;;2.75;2.75;;;;;11.98;58.19;101337.22;5057489;28;66082;-62
2021/10/01 00:27:53;;;;;;;;;4.00;3.00;;;;;11.99;58.12;101330.97;5058389;28;45267;-61
2021/10/01 00:30:19;;;;;;;;;2.50;2.50;;;;;11.95;58.06;101335.69;5039709;28;59048;-61
2021/10/01 00:32:44;;;;;;;;;4.25;4.25;;;;;11.94;58.33;101328.72;5057515;28;63610;-61
2021/10/01 00:35:10;;;;;;;;;3.50;3.00;;;;;11.93;58.73;101324.44;5058080;28;45335;-61
2021/10/01 00:37:35;;;;;;;;;5.75;3.50;;;;;11.93;58.09;101329.69;5058355;28;45319;-61
2021/10/01 00:40:00;;;;;;;;;2.00;2.00;;;;;11.91;58.25;101318.44;5058162;28;45475;-61
2021/10/01 00:42:26;;;;;;;;;4.00;2.00;;;;;11.90;58.52;101321.22;5057455;28;61954;-61
2021/10/01 00:44:53;;;;;;;;;3.00;3.00;;;;;11.87;57.91;101320.50;5057717;28;53233;-61
2021/10/01 00:47:19;;;;;;;;;4.25;2.25;;;;;11.86;58.29;101312.72;5058193;28;45534;-62
2021/10/01 00:49:44;;;;;;;;;1.75;1.00;;;;;11.83;58.71;101318.25;5057769;28;48877;-61
2021/10/01 00:52:10;;;;;;;;;4.75;3.00;;;;;11.79;58.96;101312.41;5056897;28;68992;-60
2021/10/01 00:54:35;;;;;;;;;1.75;1.75;;;;;11.80;58.66;101310.59;5039132;28;65120;-61
2021/10/01 00:57:01;;;;;;;;;5.00;2.00;;;;;11.82;59.22;101313.94;5057955;28;45436;-61
2021/10/01 00:59:26;;;;;;;;;5.25;3.00;;;;;11.82;59.13;101313.94;5057009;28;64899;-61
2021/10/01 01:01:51;;;;;;;;;3.00;3.00;;;;;11.83;59.27;101310.34;5057435;28;45336;-61
2021/10/01 01:04:17;;;;;;;;;1.75;1.75;;;;;11.80;58.99;101305.31;5056800;28;68447;-61
2021/10/01 01:06:59;;;;;;;;;2.75;2.75;;;;;11.79;58.82;101303.66;5022677;28;55008;-61
2021/10/01 01:09:31;;;;;;;;;2.75;1.75;;;;;11.79;58.64;101303.66;5040282;28;45213;-61
2021/10/01 01:12:08;;;;;;;;;2.00;2.00;;;;;11.76;58.77;101301.25;5057380;28;46578;-61
2021/10/01 01:14:52;;;;;;;;;4.00;3.00;;;;;11.73;58.59;101300.56;5039562;28;45453;-61
2021/10/01 01:17:33;;;;;;;;;2.75;1.25;;;;;11.76;58.44;101307.38;5040030;28;45524;-61
2021/10/01 01:20:09;;;;;;;;;2.00;2.00;;;;;11.76;58.34;101302.13;5023700;28;45468;-61
2021/10/01 01:22:48;;;;;;;;;1.75;1.00;;;;;11.77;58.04;101300.31;5057234;28;45387;-61
2021/10/01 01:25:47;;;;;;;;;2.25;1.75;;;;;11.79;58.24;101298.38;5057344;28;45920;-61
2021/10/01 01:28:36;;;;;;;;;2.00;1.00;;;;;11.80;57.62;101289.53;5057333;28;45430;-61
2021/10/01 01:31:16;;;;;;;;;2.00;2.00;;;;;11.82;57.69;101285.81;5057467;28;45363;-61
2021/10/01 01:33:41;;;;;;;;;1.50;1.50;;;;;11.83;57.95;101284.84;5024267;28;45346;-61
2021/10/01 01:36:07;;;;;;;;;3.00;2.00;;;;;11.84;57.72;101277.78;5021924;28;62220;-60
2021/10/01 01:38:39;;;;;;;;;2.25;2.25;;;;;11.84;57.62;101277.78;5038283;28;68286;-61
2021/10/01 01:41:04;;;;;;;;;4.25;2.00;;;;;11.85;57.58;101271.56;5039526;28;45509;-61
2021/10/01 01:43:30;;;;;;;;;2.00;2.00;;;;;11.86;57.98;101273.22;5022005;28;59806;-61
2021/10/01 01:45:56;;;;;;;;;5.00;2.00;;;;;11.86;57.92;101273.22;5021405;28;71716;-60
2021/10/01 01:48:22;;;;;;;;;1.75;1.75;;;;;11.85;58.00;101274.19;5022914;28;45231;-61
2021/10/01 01:50:47;;;;;;;;;3.25;2.00;;;;;11.84;58.07;101268.09;5022148;28;54309;-61
2021/10/01 01:53:13;;;;;;;;;1.00;1.00;;;;;11.85;58.13;101263.66;5021475;28;67498;-61
2021/10/01 01:55:38;;;;;;;;;2.00;2.00;;;;;11.83;58.03;101262.94;5038972;28;45723;-61
2021/10/01 01:58:04;;;;;;;;;2.75;1.50;;;;;11.79;57.91;101259.75;5057012;28;45497;-61
2021/10/01 02:00:29;;;;;;;;;4.75;3.00;;;;;11.79;58.27;101256.25;5022220;28;46841;-61
2021/10/01 02:02:55;;;;;;;;;2.00;2.00;;;;;11.77;58.49;101247.66;5022260;28;46566;-61
2021/10/01 02:05:20;;;;;;;;;2.00;2.00;;;;;11.74;57.95;101251.38;5055703;28;45367;-61
2021/10/01 02:07:46;;;;;;;;;2.75;2.00;;;;;11.73;58.41;101247.06;5056925;28;45358;-60
2021/10/01 02:10:12;;;;;;;;;4.00;2.25;;;;;11.72;58.41;101240.97;5021364;28;63103;-61
2021/10/01 02:12:37;;;;;;;;;2.00;2.00;;;;;11.70;58.64;101242.88;5021233;28;46591;-61
2021/10/01 02:15:03;;;;;;;;;2.00;2.00;;;;;11.69;58.78;101235.94;5055653;28;67540;-61
2021/10/01 02:17:30;;;;;;;;;3.75;2.00;;;;;11.66;58.84;101235.38;5037932;28;45481;-61
2021/10/01 02:19:55;;;;;;;;;2.75;2.75;;;;;11.64;58.51;101227.63;5022280;28;45234;-61
2021/10/01 02:22:21;;;;;;;;;2.75;2.00;;;;;11.58;58.69;101231.56;5037706;28;62465;-61
2021/10/01 02:24:46;;;;;;;;;3.00;2.00;;;;;11.57;58.79;101229.06;5021996;28;45404;-61
2021/10/01 02:27:22;;;;;;;;;4.00;2.00;;;;;11.53;58.96;101222.41;5055829;28;63619;-61
2021/10/01 02:30:06;;;;;;;;;3.25;2.50;;;;;11.50;59.28;101220.00;5022803;28;45380;-61
2021/10/01 02:32:40;;;;;;;;;4.00;1.75;;;;;11.46;59.27;101218.59;5038271;28;46486;-61
2021/10/01 02:35:06;;;;;;;;;3.25;1.00;;;;;11.40;59.64;101214.63;5039470;28;45752;-61
2021/10/01 02:37:32;;;;;;;;;2.00;2.00;;;;;11.35;59.62;101207.13;5056350;28;45198;-61
2021/10/01 02:39:58;;;;;;;;;2.00;2.00;;;;;11.31;59.61;101208.34;5038415;28;45461;-61
2021/10/01 02:42:24;;;;;;;;;3.00;2.00;;;;;11.27;60.03;101204.28;5056089;28;46362;-61
2021/10/01 02:44:49;;;;;;;;;3.75;2.00;;;;;11.22;60.09;101199.41;5056307;28;45241;-61
2021/10/01 02:47:15;;;;;;;;;2.00;2.00;;;;;11.19;60.04;101194.38;5056220;28;45445;-61
2021/10/01 02:49:40;;;;;;;;;3.00;3.00;;;;;11.19;59.82;101193.53;5038277;28;45580;-61
2021/10/01 02:52:27;;;;;;;;;3.00;3.00;;;;;11.13;60.07;101184.34;5055975;28;45312;-61
2021/10/01 02:54:59;;;;;;;;;2.50;2.00;;;;;11.11;60.23;101183.66;5023326;28;45340;-60
2021/10/01 02:57:26;;;;;;;;;3.00;2.00;;;;;11.06;60.44;101184.03;5038376;28;45332;-61
2021/10/01 02:59:52;;;;;;;;;3.25;2.75;;;;;11.01;60.53;101187.97;5021732;28;45499;-61
2021/10/01 03:02:17;;;;;;;;;3.75;2.50;;;;;10.95;60.56;101179.59;5036986;28;71289;-61
2021/10/01 03:04:46;;;;;;;;;2.00;2.00;;;;;10.93;60.13;101181.53;5020599;28;64913;-61
2021/10/01 03:07:11;;;;;;;;;3.00;3.00;;;;;10.91;60.62;101177.34;5038159;28;45295;-60
2021/10/01 03:09:37;;;;;;;;;2.00;2.00;;;;;10.88;60.35;101174.97;5038125;28;45578;-61
2021/10/01 03:12:02;;;;;;;;;2.00;2.00;;;;;10.84;60.96;101167.34;5037928;28;47014;-61
2021/10/01 03:14:28;;;;;;;;;5.50;4.00;;;;;10.81;60.77;101169.38;5037813;28;45356;-61
2021/10/01 03:16:53;;;;;;;;;4.25;3.00;;;;;10.79;60.98;101168.66;5037939;28;45246;-61
2021/10/01 03:19:22;;;;;;;;;4.25;3.25;;;;;10.76;60.82;101161.84;5037804;28;54449;-61
2021/10/01 03:21:49;;;;;;;;;4.00;4.00;;;;;10.76;61.09;101163.66;5021756;28;46379;-61
2021/10/01 03:24:15;;;;;;;;;5.00;3.00;;;;;10.72;61.12;101160.41;5038945;28;45768;-61
2021/10/01 03:26:40;;;;;;;;;3.50;2.75;;;;;10.68;61.15;101159.84;5058719;28;59847;-61
2021/10/01 03:29:06;;;;;;;;;6.25;3.25;;;;;10.65;61.57;101157.44;5040626;28;58850;-61
2021/10/01 03:31:31;;;;;;;;;4.00;3.00;;;;;10.64;61.64;101157.56;5041275;28;45390;-61
2021/10/01 03:33:56;;;;;;;;;3.25;3.25;;;;;10.62;61.36;101148.94;5023654;28;65396;-60
2021/10/01 03:36:22;;;;;;;;;4.50;3.25;;;;;10.63;61.72;101150.63;5058580;28;55451;-61
2021/10/01 03:38:48;;;;;;;;;2.00;2.00;;;;;10.60;61.86;101151.72;5024356;28;45540;-60
2021/10/01 03:41:16;;;;;;;;;3.50;3.50;;;;;10.61;61.70;101155.16;5040990;28;46213;-61
2021/10/01 03:43:42;;;;;;;;;3.00;3.00;;;;;10.58;61.78;101152.81;5058905;28;45791;-61
2021/10/01 03:46:07;;;;;;;;;3.25;3.00;;;;;10.56;61.82;101147.66;5058348;28;59997;-60
2021/10/01 03:48:32;;;;;;;;;4.00;4.00;;;;;10.56;61.88;101146.84;5058516;28;59501;-61
2021/10/01 03:50:58;;;;;;;;;2.75;2.25;;;;;10.54;61.74;101142.53;5058185;28;63849;-61
2021/10/01 03:53:23;;;;;;;;;4.00;3.25;;;;;10.52;61.60;101135.72;5057902;28;66960;-61
2021/10/01 03:55:48;;;;;;;;;5.00;5.00;;;;;10.50;61.62;101133.22;5058179;28;56787;-61
2021/10/01 03:58:14;;;;;;;;;4.00;4.00;;;;;10.48;61.80;101129.88;5058766;28;45386;-61
2021/10/01 04:00:39;;;;;;;;;4.50;3.25;;;;;10.46;61.96;101121.28;5057961;28;64549;-61
2021/10/01 04:03:05;;;;;;;;;16.50;15.25;;;;;10.45;61.90;101124.88;5040604;28;45321;-61
2021/10/01 04:05:30;;;;;;;;;6.00;4.00;;;;;10.43;62.26;101120.66;5058802;28;45256;-61
2021/10/01 04:07:56;;;;;;;;;7.00;4.00;;;;;10.40;62.18;101119.13;5058698;28;45229;-60
2021/10/01 04:10:21;;;;;;;;;3.00;3.00;;;;;10.39;62.35;101117.47;5058407;28;45568;-61
2021/10/01 04:12:47;;;;;;;;;3.00;3.00;;;;;10.36;62.22;101113.22;5058267;28;55269;-61
2021/10/01 04:15:12;;;;;;;;;3.50;3.50;;;;;10.38;62.39;101107.88;5039634;28;63732;-61
2021/10/01 04:17:37;;;;;;;;;5.25;4.00;;;;;10.37;62.53;101106.19;5057594;28;66605;-61
2021/10/01 04:20:04;;;;;;;;;5.75;5.75;;;;;10.35;62.38;101108.13;5057487;28;67186;-60
2021/10/01 04:22:30;;;;;;;;;5.50;5.00;;;;;10.34;62.71;101107.25;5058102;28;46112;-61
2021/10/01 04:24:56;;;;;;;;;4.75;3.50;;;;;10.34;62.69;101106.44;5040484;28;45344;-61
2021/10/01 04:27:22;;;;;;;;;2.75;2.75;;;;;10.35;62.81;101097.59;5057825;28;58317;-61
2021/10/01 04:29:47;;;;;;;;;2.75;2.75;;;;;10.36;62.82;101096.66;5057549;28;67762;-61
2021/10/01 04:32:12;;;;;;;;;5.00;3.00;;;;;10.38;62.67;101102.63;5057914;28;52298;-60
2021/10/01 04:37:38;;;;;;;;;3.25;3.25;;;;;10.43;62.80;101099.66;5055907;28;45776;-61
2021/10/01 04:40:04;;;;;;;;;3.00;2.25;;;;;10.44;62.93;101098.69;5057324;28;45563;-61
2021/10/01 04:42:30;;;;;;;;;4.50;3.75;;;;;10.46;63.11;101094.16;5058036;28;45372;-60
2021/10/01 04:44:55;;;;;;;;;5.00;2.75;;;;;10.46;63.10;101095.00;5057313;28;63251;-61
2021/10/01 04:47:20;;;;;;;;;3.00;3.00;;;;;10.50;62.89;101091.19;5057435;28;61201;-61
2021/10/01 04:49:46;;;;;;;;;4.00;3.75;;;;;10.50;63.15;101091.19;5057872;28;45331;-61
2021/10/01 04:52:11;;;;;;;;;4.00;3.00;;;;;10.51;63.10;101084.97;5039151;28;62789;-61
2021/10/01 04:54:36;;;;;;;;;4.00;2.00;;;;;10.53;63.03;101085.69;5057953;28;45352;-61
2021/10/01 04:57:02;;;;;;;;;3.00;3.00;;;;;10.55;63.06;101088.19;5057275;28;60222;-61
2021/10/01 04:59:29;;;;;;;;;8.25;6.00;;;;;10.57;63.05;101090.69;5054904;28;47284;-61
2021/10/01 05:01:54;;;;;;;;;5.50;4.00;;;;;10.61;63.15;101097.34;5056177;28;45780;-60
2021/10/01 05:04:20;;;;;;;;;3.25;2.75;;;;;10.62;62.99;101092.00;5056712;28;65445;-61
2021/10/01 05:06:45;;;;;;;;;4.00;3.00;;;;;10.64;63.10;101089.22;5056833;28;65019;-60
2021/10/01 05:09:10;;;;;;;;;4.00;3.50;;;;;10.65;62.73;101089.13;5039523;28;46159;-61
2021/10/01 05:11:36;;;;;;;;;2.50;2.50;;;;;10.66;62.98;101095.19;5056657;28;67231;-61
2021/10/01 05:14:01;;;;;;;;;5.00;3.75;;;;;10.66;62.64;101093.41;5038673;28;63827;-60
2021/10/01 05:16:26;;;;;;;;;3.75;3.50;;;;;10.68;62.92;101094.13;5057558;28;45322;-61
2021/10/01 05:18:52;;;;;;;;;4.00;4.00;;;;;10.70;62.77;101091.38;5056651;28;62645;-61
2021/10/01 05:21:17;;;;;;;;;4.00;4.00;;;;;10.71;62.97;101087.78;5057237;28;45439;-61
2021/10/01 05:23:43;;;;;;;;;5.25;4.00;;;;;10.71;63.12;101087.78;5038402;28;63720;-61
2021/10/01 05:26:08;;;;;;;;;4.50;3.50;;;;;10.71;62.99;101093.03;5056534;28;61122;-61
2021/10/01 05:28:33;;;;;;;;;6.00;4.00;;;;;10.71;63.13;101089.59;5056207;28;70652;-61
2021/10/01 05:30:59;;;;;;;;;4.75;3.50;;;;;10.71;63.00;101086.97;5056548;28;58101;-61
2021/10/01 05:33:24;;;;;;;;;5.50;3.50;;;;;10.72;63.04;101086.00;5038629;28;57806;-61
2021/10/01 05:35:49;;;;;;;;;6.00;4.00;;;;;10.69;63.09;101087.91;5056014;28;60637;-61
2021/10/01 05:38:15;;;;;;;;;5.00;4.00;;;;;10.69;62.88;101087.06;5056084;28;69699;-61
2021/10/01 05:40:40;;;;;;;;;7.50;6.25;;;;;10.68;63.28;101086.25;5056806;28;45479;-61
2021/10/01 05:43:06;;;;;;;;;4.00;4.00;;;;;10.68;63.01;101083.63;5057075;28;45731;-61
2021/10/01 05:45:33;;;;;;;;;5.75;5.50;;;;;10.69;63.20;101085.28;5056295;28;61300;-61
2021/10/01 05:47:58;;;;;;;;;6.75;5.25;;;;;10.70;63.22;101086.09;5055654;28;45521;-61
2021/10/01 05:50:27;;;;;;;;;5.50;5.00;;;;;10.70;63.51;101078.22;5056794;28;45433;-61
2021/10/01 05:52:56;;;;;;;;;4.00;4.00;;;;;10.70;63.27;101075.59;5057022;28;45280;-61
2021/10/01 05:55:22;;;;;;;;;5.75;5.00;;;;;10.71;63.39;101079.06;5056909;28;45499;-61
2021/10/01 05:57:47;;;;;;;;;5.75;4.00;;;;;10.70;63.24;101075.59;5054565;28;71682;-60
2021/10/01 06:00:13;;;;;;;;;8.50;6.25;;;;;10.73;63.23;101080.59;5038555;28;46861;-61
2021/10/01 06:02:40;;;;;;;;;5.00;3.75;;;;;10.75;63.14;101075.25;5056828;28;45443;-61
2021/10/01 06:05:05;;;;;;;;;11.25;6.50;;;;;10.76;63.24;101064.59;5056803;28;45491;-61
2021/10/01 06:07:31;;;;;;;;;6.00;5.00;;;;;10.76;63.39;101075.09;5056461;28;47199;-61
2021/10/01 06:09:56;;;;;;;;;8.00;5.50;;;;;10.79;63.24;101066.97;5055785;28;45312;-61
2021/10/01 06:12:21;;;;;;;;;9.50;9.25;;;;;10.79;63.33;101059.09;5055130;28;64549;-61
2021/10/01 06:14:47;;;;;;;;;9.00;7.00;;;;;10.82;63.62;101056.22;5055582;28;66168;-61
2021/10/01 06:17:12;;;;;;;;;9.00;8.25;;;;;10.87;63.16;101060.25;5056280;28;46273;-61
2021/10/01 06:19:41;;;;;;;;;7.00;7.00;;;;;10.89;63.49;101059.16;5056534;28;45364;-60
2021/10/01 06:22:06;;;;;;;;;12.50;9.00;;;;;10.91;63.08;101053.78;5022787;28;45506;-61
2021/10/01 06:24:32;;;;;;;;;7.00;6.75;;;;;10.92;63.40;101064.16;5054680;28;45690;-61
2021/10/01 06:26:57;;;;;;;;;6.00;6.00;;;;;10.93;63.36;101055.31;5056085;28;45396;-61
2021/10/01 06:29:23;;;;;;;;;5.00;5.00;;;;;10.96;63.45;101059.50;5055977;28;45438;-61
2021/10/01 06:31:48;;;;;;;;;6.00;5.00;;;;;11.00;63.61;101060.94;5056133;28;45685;-61
2021/10/01 06:34:13;;;;;;;;;4.50;4.50;;;;;11.03;63.50;101065.94;5037392;28;62064;-60
2021/10/01 06:36:39;;;;;;;;;5.25;5.25;;;;;11.05;63.21;101057.91;5055927;28;45317;-61
2021/10/01 06:39:05;;;;;;;;;6.25;5.75;;;;;11.10;63.18;101061.84;5055901;28;45264;-61
2021/10/01 06:41:31;;;;;;;;;6.75;5.00;;;;;11.13;63.21;101050.22;5056270;28;45312;-59
2021/10/01 06:43:59;;;;;;;;;6.00;5.00;;;;;11.18;63.24;101052.47;5037988;28;45360;-61
2021/10/01 08:20:30;;;;;;;;;2.75;2.00;;;;;14.67;58.11;101030.00;5054968;28;45719;-60
2021/10/01 08:22:55;;;;;;;;;4.50;3.00;;;;;14.82;57.65;101026.88;5055907;28;45415;-60
2021/10/01 08:25:21;;;;;;;;;3.25;2.00;;;;;15.01;57.45;101025.03;5054487;28;69040;-60
2021/10/01 08:27:46;;;;;;;;;4.00;2.50;;;;;15.20;57.29;101019.56;5054541;28;61360;-61
2021/10/01 08:30:12;;;;;;;;;4.25;3.75;;;;;15.41;56.73;101010.41;5054736;28;52190;-60
2021/10/01 08:32:38;;;;;;;;;3.75;3.00;;;;;15.58;56.25;101014.00;5037111;28;45483;-60
2021/10/01 08:35:04;;;;;;;;;2.75;1.75;;;;;15.72;55.97;101025.84;5054025;28;72580;-60
2021/10/01 08:37:29;;;;;;;;;3.50;2.00;;;;;15.83;55.86;101016.75;5035125;28;45501;-60
2021/10/01 08:39:54;;;;;;;;;2.00;2.00;;;;;15.98;55.72;101007.25;5044058;28;54626;-60
2021/10/01 08:42:20;;;;;;;;;4.25;2.75;;;;;16.13;55.35;101011.97;5024307;28;74376;-60
2021/10/01 08:44:45;;;;;;;;;1.50;1.50;;;;;16.29;54.95;101003.22;5024179;28;65237;-61
2021/10/01 08:47:12;;;;;;;;;2.00;1.75;;;;;16.48;54.84;101004.72;5006840;28;64856;-60
2021/10/01 08:49:37;;;;;;;;;1.00;1.00;;;;;16.66;54.03;101001.13;5024829;28;45601;-60
2021/10/01 08:52:03;;;;;;;;;1.75;1.75;;;;;16.84;54.10;101000.94;5042699;28;46263;-60
2021/10/01 08:54:28;;;;;;;;;2.00;1.50;;;;;16.97;53.43;100993.31;5024056;28;45485;-61
2021/10/01 08:56:54;;;;;;;;;3.50;1.00;;;;;17.08;53.38;101000.13;5040779;28;46120;-61
2021/10/01 08:59:20;;;;;;;;;3.00;1.25;;;;;17.18;52.87;100989.31;5056188;27;65091;-63
2021/10/01 09:01:45;;;;;;;;;4.50;2.00;;;;;17.30;52.76;100990.63;5041818;28;45793;-59
2021/10/01 09:04:11;;;;;;;;;2.00;1.00;;;;;17.44;52.62;100993.59;5042089;28;45560;-62
2021/10/01 09:06:36;;;;;;;;;6.75;1.75;;;;;17.57;52.26;100993.06;5041764;28;54401;-62
2021/10/01 09:09:05;;;;;;;;;3.75;2.50;;;;;17.70;52.13;100987.19;5040635;28;63076;-62
2021/10/01 09:11:35;;;;;;;;;2.25;1.75;;;;;17.81;51.50;100989.47;5040261;28;47413;-62
2021/10/01 09:14:05;;;;;;;;;0.75;0.75;;;;;17.89;51.03;100973.50;5043641;28;45567;-62
2021/10/01 09:16:31;;;;;;;;;2.00;2.00;;;;;18.00;50.08;100982.94;5043395;28;45462;-62
2021/10/01 09:18:56;;;;;;;;;2.00;2.00;;;;;18.00;50.30;100984.78;5058552;28;45708;-62
2021/10/01 09:21:22;;;;;;;;;2.75;2.25;;;;;17.99;50.44;100978.63;5023420;28;75435;-62
2021/10/01 09:24:00;;;;;;;;;3.50;2.00;;;;;17.99;50.56;100972.47;5043530;28;45646;-62
2021/10/01 09:26:26;;;;;;;;;2.00;1.00;;;;;17.93;50.19;100966.84;5024279;28;45658;-62
2021/10/01 09:29:07;;;;;;;;;3.25;2.00;;;;;17.87;50.86;100969.34;5024108;28;45509;-62
2021/10/01 09:31:42;;;;;;;;;3.00;2.00;;;;;17.79;51.13;100967.56;5024224;28;46339;-61
2021/10/01 09:34:12;;;;;;;;;1.00;1.00;;;;;17.70;51.27;100961.47;5024580;28;45530;-61
2021/10/01 09:36:38;;;;;;;;;3.25;1.25;;;;;17.58;51.18;100961.00;5043260;28;45950;-62
2021/10/01 09:39:04;;;;;;;;;2.00;2.00;;;;;17.48;51.59;100961.19;5022961;28;45486;-62
2021/10/01 09:41:32;;;;;;;;;2.50;1.00;;;;;17.39;51.52;100958.75;5043404;28;46557;-62
2021/10/01 09:44:08;;;;;;;;;3.00;1.75;;;;;17.31;51.76;100963.09;5043095;28;45965;-62
2021/10/01 09:46:38;;;;;;;;;3.75;2.25;;;;;17.26;52.25;100965.41;5024018;28;45514;-62
2021/10/01 09:49:03;;;;;;;;;1.00;1.00;;;;;17.25;52.24;100963.75;5041553;28;45618;-62
2021/10/01 09:51:29;;;;;;;;;4.00;2.75;;;;;17.24;52.82;100963.91;5023347;28;45998;-62
2021/10/01 09:53:54;;;;;;;;;4.00;2.25;;;;;17.24;52.27;100959.44;5023034;28;65970;-62
2021/10/01 09:56:30;;;;;;;;;0.00;0.00;;;;;17.23;52.62;100956.94;5041026;28;66575;-62
2021/10/01 09:59:05;;;;;;;;;3.00;2.50;;;;;17.20;52.40;100952.81;5041249;28;46254;-62
2021/10/01 10:01:31;;;;;;;;;3.00;3.00;;;;;17.13;52.29;100951.81;5042270;28;45759;-61
2021/10/01 10:03:56;;;;;;;;;2.00;2.00;;;;;17.10;52.58;100953.00;5022991;28;45785;-62
2021/10/01 10:06:22;;;;;;;;;2.75;2.25;;;;;17.08;52.63;100954.16;5022325;28;67916;-62
2021/10/01 10:08:47;;;;;;;;;2.75;2.75;;;;;17.04;52.74;100959.81;5021934;28;57773;-62
2021/10/01 10:11:18;;;;;;;;;3.00;2.50;;;;;17.00;52.87;100955.81;5041644;28;46483;-60
2021/10/01 10:13:53;;;;;;;;;4.00;2.00;;;;;16.98;53.43;100957.81;5057649;28;45685;-59
2021/10/01 10:16:23;;;;;;;;;4.25;2.75;;;;;16.97;54.07;100958.00;5057553;27;45539;-62
2021/10/01 10:18:56;;;;;;;;;3.00;1.25;;;;;16.97;54.43;100958.81;5039370;28;46088;-62
2021/10/01 10:21:21;;;;;;;;;2.75;2.00;;;;;16.96;54.50;100967.78;5023485;28;45489;-62
2021/10/01 10:23:46;;;;;;;;;4.00;2.50;;;;;16.96;55.29;100961.63;5041955;28;63776;-62
2021/10/01 10:26:12;;;;;;;;;2.00;2.00;;;;;16.95;56.33;100966.13;5042239;28;52167;-62
2021/10/01 10:28:39;;;;;;;;;3.00;3.00;;;;;16.96;56.02;100959.81;5040042;28;64506;-59
2021/10/01 10:31:04;;;;;;;;;2.00;1.50;;;;;16.95;56.60;100959.97;5041369;28;45551;-59
2021/10/01 10:33:50;;;;;;;;;5.25;4.50;;;;;16.94;56.62;100958.31;5041182;28;65055;-61
2021/10/01 10:36:27;;;;;;;;;2.75;2.75;;;;;16.91;56.90;100954.97;5041515;28;45791;-59
2021/10/01 10:38:59;;;;;;;;;2.00;1.00;;;;;16.89;57.48;100956.16;5041328;28;45506;-60
2021/10/01 10:41:29;;;;;;;;;1.00;1.00;;;;;16.87;57.01;100952.84;5058026;28;45526;-60
2021/10/01 10:43:55;;;;;;;;;4.75;3.00;;;;;16.84;56.99;100943.38;5024056;28;45968;-59
2021/10/01 10:46:47;;;;;;;;;3.00;3.00;;;;;16.82;56.96;100939.25;5042200;28;45560;-59
2021/10/01 10:49:24;;;;;;;;;1.50;1.00;;;;;16.80;57.30;100942.06;5023139;28;45514;-60
2021/10/01 10:52:17;;;;;;;;;3.00;2.00;;;;;16.76;57.24;100946.88;5041502;28;46317;-60
2021/10/01 10:54:49;;;;;;;;;1.00;1.00;;;;;16.73;57.33;100935.75;5041786;28;45511;-60
2021/10/01 10:57:18;;;;;;;;;4.00;1.50;;;;;16.71;57.18;100935.09;5040668;28;45503;-60
2021/10/01 10:59:47;;;;;;;;;3.50;2.00;;;;;16.68;57.12;100930.97;5042408;28;45588;-59
2021/10/01 11:02:16;;;;;;;;;2.50;1.75;;;;;16.68;57.06;100923.00;5022722;28;45574;-59
2021/10/01 11:04:42;;;;;;;;;4.00;2.25;;;;;16.67;57.04;100926.66;5031664;28;45439;-60
2021/10/01 11:07:08;;;;;;;;;3.00;3.00;;;;;16.68;57.00;100909.72;5020088;28;65925;-60
2021/10/01 11:09:34;;;;;;;;;5.50;3.00;;;;;16.68;56.72;100904.44;5041516;28;45704;-60
2021/10/01 11:12:00;;;;;;;;;1.00;1.00;;;;;16.68;56.95;100909.72;5041636;28;46482;-60
2021/10/01 11:14:27;;;;;;;;;3.00;2.00;;;;;16.69;57.40;100906.09;5022349;28;45497;-60
2021/10/01 11:16:52;;;;;;;;;2.00;2.00;;;;;16.71;57.22;100916.50;5041298;28;45580;-59
2021/10/01 11:19:38;;;;;;;;;1.00;1.00;;;;;16.71;57.29;100897.94;5040604;28;45620;-61
2021/10/01 11:22:28;;;;;;;;;2.25;1.50;;;;;16.71;57.72;100893.47;5023216;28;45532;-62
2021/10/01 11:25:03;;;;;;;;;2.75;1.00;;;;;16.71;57.81;100889.97;5041744;28;46024;-62
2021/10/01 11:27:29;;;;;;;;;3.75;1.00;;;;;16.73;58.17;100898.59;5021528;28;45925;-62
2021/10/01 11:29:54;;;;;;;;;2.50;1.00;;;;;16.74;58.21;100894.97;5041841;28;46188;-62
2021/10/01 11:32:26;;;;;;;;;2.25;2.00;;;;;16.73;58.10;100890.66;5041347;28;45496;-59
2021/10/01 11:34:54;;;;;;;;;2.00;2.00;;;;;16.70;58.07;100891.81;5022573;28;45444;-62
2021/10/01 11:37:20;;;;;;;;;3.75;2.00;;;;;16.69;58.66;100884.84;5021259;28;46391;-62
2021/10/01 11:39:45;;;;;;;;;2.75;2.00;;;;;16.69;58.45;100878.75;5041274;28;46509;-59
2021/10/01 11:42:20;;;;;;;;;4.00;3.00;;;;;16.68;59.22;100871.78;5039801;28;74319;-62
2021/10/01 11:44:45;;;;;;;;;5.75;2.00;;;;;16.69;59.08;100865.47;5022603;28;46160;-62
2021/10/01 11:47:10;;;;;;;;;1.75;1.00;;;;;16.72;59.22;100870.41;5007491;28;47392;-62
2021/10/01 11:49:36;;;;;;;;;2.25;1.00;;;;;16.74;59.20;100863.97;5044403;28;65925;-62
2021/10/01 11:52:05;;;;;;;;;2.75;1.75;;;;;16.77;58.88;100870.75;5044376;28;52840;-62
2021/10/01 11:54:31;;;;;;;;;2.00;1.00;;;;;16.81;58.90;100864.09;5025593;28;45497;-62
2021/10/01 11:56:58;;;;;;;;;1.50;1.50;;;;;16.85;58.72;100861.94;5025114;28;45475;-62
2021/10/01 11:59:44;;;;;;;;;3.75;2.00;;;;;16.87;58.31;100862.63;5043710;28;45932;-62
2021/10/01 12:02:10;;;;;;;;;1.00;1.00;;;;;16.91;58.33;100855.97;5044263;28;46714;-62
2021/10/01 12:04:36;;;;;;;;;3.00;1.00;;;;;16.94;58.23;100863.59;5025472;28;45469;-62
2021/10/01 12:07:05;;;;;;;;;2.25;1.25;;;;;16.98;57.76;100848.97;5024706;28;45480;-59
2021/10/01 12:09:31;;;;;;;;;1.75;1.25;;;;;17.02;57.91;100845.00;5043925;28;45537;-59
2021/10/01 12:12:04;;;;;;;;;2.25;1.00;;;;;17.06;57.45;100846.31;5044240;28;45834;-59
2021/10/01 12:14:29;;;;;;;;;1.00;1.00;;;;;17.10;57.45;100841.50;5025977;28;45526;-59
2021/10/01 12:16:58;;;;;;;;;2.00;0.50;;;;;17.17;57.17;100831.00;5042110;28;66507;-59
2021/10/01 12:19:24;;;;;;;;;4.75;3.50;;;;;17.23;57.08;100838.28;5042789;28;45531;-59
2021/10/01 12:22:00;;;;;;;;;2.25;0.50;;;;;17.28;57.18;100838.59;5043023;28;45641;-59
2021/10/01 12:24:26;;;;;;;;;2.00;1.00;;;;;17.38;57.21;100843.69;5043401;28;45547;-62
2021/10/01 12:26:52;;;;;;;;;4.00;1.50;;;;;17.46;57.06;100840.19;5043390;28;45463;-59
2021/10/01 12:29:19;;;;;;;;;0.25;0.25;;;;;17.56;57.20;100843.44;5041895;28;45488;-59
2021/10/01 12:32:01;;;;;;;;;1.75;1.25;;;;;17.67;56.92;100841.38;5043481;28;46370;-59
2021/10/01 12:34:31;;;;;;;;;2.75;1.50;;;;;17.76;57.01;100841.16;5043655;28;45960;-59
2021/10/01 12:37:02;;;;;;;;;2.50;2.50;;;;;17.85;57.20;100836.63;5058652;27;45665;-60
2021/10/01 12:39:28;;;;;;;;;1.00;1.00;;;;;17.94;56.75;100840.88;5043283;28;45389;-59
2021/10/01 12:41:55;;;;;;;;;1.00;1.00;;;;;18.02;56.72;100839.16;5024582;28;45658;-59
2021/10/01 12:44:21;;;;;;;;;1.00;1.00;;;;;18.13;56.94;100827.31;5043815;28;45952;-60
2021/10/01 12:46:48;;;;;;;;;2.00;1.00;;;;;18.20;55.88;100820.28;5042950;28;64996;-62
2021/10/01 12:49:17;;;;;;;;;1.25;1.00;;;;;18.25;55.30;100812.59;5023077;28;45432;-62
2021/10/01 12:51:43;;;;;;;;;4.00;1.00;;;;;18.27;55.09;100804.41;5008459;28;46128;-60
2021/10/01 12:54:25;;;;;;;;;0.25;0.25;;;;;18.29;54.81;100797.06;5024496;28;45606;-59
2021/10/01 12:57:29;;;;;;;;;0.00;0.00;;;;;18.27;55.09;100799.94;5042206;28;45837;-59
2021/10/01 13:00:00;;;;;;;;;0.25;0.25;;;;;18.27;55.27;100794.63;4960472;28;45631;-60
2021/10/01 13:02:28;;;;;;;;;1.75;0.50;;;;;18.29;55.04;100802.41;4959881;28;46240;-59
2021/10/01 13:04:58;;;;;;;;;0.75;0.00;;;;;18.31;55.26;100798.53;5002254;28;45595;-59